Terminal Aerodrome Forecast
Issued by NWS

Home | Current Version | Previous Version | Text Only | Print | Product List | Glossary On
Versions: 1 2 3 4 5 6 7 8 9 10 11 12 13
337
FTUS41 KBTV 201435 AAA
TAFRUT
TAF AMD
KRUT 201435Z 2015/2112 32012G18KT P6SM FEW100
     FM210000 10005KT P6SM SKC=

USA.gov is the U.S. government's official web portal to all federal, state and local government web resources and services.